createdAt,value
2022-11-17T00:01:53.880Z,310.65
2022-11-17T00:04:20.579Z,309.15
2022-11-17T00:06:47.096Z,292.90
2022-11-17T00:09:17.691Z,290.33
2022-11-17T00:12:03.984Z,306.27
2022-11-17T00:14:33.661Z,286.77
2022-11-17T00:17:01.225Z,294.40
2022-11-17T00:19:46.623Z,276.05
2022-11-17T00:22:13.329Z,276.02
2022-11-17T00:24:39.988Z,292.17
2022-11-17T00:27:06.646Z,281.73
2022-11-17T00:29:37.380Z,290.85
2022-11-17T00:32:24.943Z,262.10
2022-11-17T00:34:51.422Z,257.75
2022-11-17T00:37:18.012Z,239.65
2022-11-17T00:39:44.512Z,250.35
2022-11-17T00:42:10.998Z,271.20
2022-11-17T00:44:37.499Z,269.02
2022-11-17T00:47:03.998Z,242.60
2022-11-17T00:49:30.512Z,232.55
2022-11-17T00:51:57.760Z,217.57
2022-11-17T00:54:24.669Z,211.10
2022-11-17T00:56:51.412Z,205.57
2022-11-17T00:59:18.096Z,194.95
2022-11-17T01:01:45.129Z,193.35
2022-11-17T01:04:13.324Z,186.38
2022-11-17T01:06:45.262Z,183.98
2022-11-17T01:09:30.240Z,190.52
2022-11-17T01:14:26.136Z,184.40
2022-11-17T01:16:53.731Z,201.98
2022-11-17T01:19:21.958Z,204.60
2022-11-17T01:21:48.934Z,198.80
2022-11-17T01:24:16.848Z,187.10
2022-11-17T01:26:45.127Z,188.90
2022-11-17T01:29:13.957Z,158.15
2022-11-17T01:31:43.520Z,148.75
2022-11-17T01:34:10.572Z,175.10
2022-11-17T01:36:58.453Z,175.40
2022-11-17T01:39:26.400Z,155.82
2022-11-17T01:41:54.016Z,172.70
2022-11-17T01:44:43.864Z,181.05
2022-11-17T01:47:30.496Z,178.25
2022-11-17T01:50:06.911Z,178.70
2022-11-17T01:52:36.165Z,162.13
2022-11-17T01:55:03.781Z,166.93
2022-11-17T01:57:41.201Z,170.93
2022-11-17T02:00:10.542Z,184.48
2022-11-17T02:02:39.366Z,180.18
2022-11-17T02:05:05.944Z,171.00
2022-11-17T02:07:36.561Z,175.80
2022-11-17T02:10:05.194Z,177.27
2022-11-17T02:12:33.758Z,174.45
2022-11-17T02:15:01.261Z,149.55
2022-11-17T02:17:35.033Z,149.93
2022-11-17T02:20:07.697Z,143.37
2022-11-17T02:22:52.167Z,140.20
2022-11-17T02:25:33.894Z,144.30
2022-11-17T02:28:09.494Z,161.63
2022-11-17T02:31:00.268Z,158.38
2022-11-17T02:33:59.998Z,147.30
2022-11-17T02:36:47.350Z,133.73
2022-11-17T02:39:25.163Z,122.10
2022-11-17T02:42:16.265Z,110.78
2022-11-17T02:45:02.966Z,109.18
2022-11-17T02:47:32.849Z,101.88
2022-11-17T02:50:05.151Z,107.90
2022-11-17T02:52:31.773Z,107.68
2022-11-17T02:55:06.700Z,110.47
2022-11-17T02:57:35.651Z,102.68
2022-11-17T03:00:10.842Z,105.43
2022-11-17T03:02:40.142Z,104.45
2022-11-17T03:05:17.061Z,102.03
2022-11-17T03:08:07.872Z,101.60
2022-11-17T03:10:34.321Z,95.88
2022-11-17T03:13:20.855Z,94.85
2022-11-17T03:16:05.161Z,84.13
2022-11-17T03:19:09.024Z,88.43
2022-11-17T03:21:45.217Z,83.72
2022-11-17T03:24:20.743Z,85.35
2022-11-17T03:26:53.442Z,87.70
2022-11-17T03:29:25.198Z,89.88
2022-11-17T03:31:58.450Z,86.70
2022-11-17T03:34:29.260Z,87.22
2022-11-17T03:37:09.451Z,89.45
2022-11-17T03:39:45.262Z,84.68
2022-11-17T03:42:24.573Z,83.47
2022-11-17T03:44:54.945Z,77.50
2022-11-17T03:47:25.243Z,74.90
2022-11-17T03:49:59.133Z,73.97
2022-11-17T03:52:27.010Z,73.53
2022-11-17T03:54:53.638Z,70.82
2022-11-17T03:57:33.124Z,75.88
2022-11-17T04:00:04.956Z,66.15
2022-11-17T04:02:31.688Z,68.43
2022-11-17T04:05:07.029Z,73.45
2022-11-17T04:07:36.603Z,74.63
2022-11-17T04:10:05.177Z,69.05
2022-11-17T04:12:50.203Z,70.38
2022-11-17T04:18:01.708Z,58.37
2022-11-17T04:20:35.831Z,70.15
2022-11-17T04:23:23.099Z,73.30
2022-11-17T04:26:10.578Z,82.85
2022-11-17T04:28:40.496Z,89.38
2022-11-17T04:31:16.496Z,90.65
2022-11-17T04:33:48.398Z,82.93
2022-11-17T04:36:17.945Z,73.35
2022-11-17T04:38:46.984Z,73.47
2022-11-17T04:41:41.427Z,73.75
2022-11-17T04:44:09.419Z,61.85
2022-11-17T04:46:36.951Z,65.53
2022-11-17T04:49:04.630Z,67.30
2022-11-17T04:51:31.951Z,71.75
2022-11-17T04:53:58.892Z,74.72
2022-11-17T04:56:25.927Z,79.43
2022-11-17T04:58:52.540Z,83.30
2022-11-17T05:01:19.829Z,88.55
2022-11-17T05:03:57.769Z,91.18
2022-11-17T05:06:32.080Z,87.32
2022-11-17T05:09:00.706Z,77.63
2022-11-17T05:11:47.834Z,75.85
2022-11-17T05:14:16.597Z,78.90
2022-11-17T05:17:08.463Z,74.07
2022-11-17T05:19:41.079Z,68.80
2022-11-17T05:22:27.961Z,74.68
2022-11-17T05:24:55.113Z,77.80
2022-11-17T05:27:22.837Z,92.80
2022-11-17T05:29:49.601Z,85.65
2022-11-17T05:32:16.499Z,83.43
2022-11-17T05:34:43.087Z,83.57
2022-11-17T05:37:09.825Z,90.82
2022-11-17T05:39:36.388Z,94.50
2022-11-17T05:42:03.449Z,100.55
2022-11-17T05:44:29.944Z,110.97
2022-11-17T05:46:56.466Z,110.20
2022-11-17T05:49:24.034Z,112.55
2022-11-17T05:51:52.862Z,95.90
2022-11-17T05:54:20.036Z,97.78
2022-11-17T05:57:04.532Z,95.88
2022-11-17T05:59:45.572Z,102.03
2022-11-17T06:02:17.255Z,104.30
2022-11-17T06:04:43.921Z,97.50
2022-11-17T06:07:11.162Z,95.85
2022-11-17T06:09:41.412Z,100.93
2022-11-17T06:12:08.277Z,91.50
2022-11-17T06:14:35.700Z,105.13
2022-11-17T06:17:08.825Z,87.45
2022-11-17T06:19:43.990Z,80.50
2022-11-17T06:22:12.803Z,84.35
2022-11-17T06:24:41.948Z,86.63
2022-11-17T06:27:09.552Z,73.57
2022-11-17T06:29:39.486Z,71.22
2022-11-17T06:32:09.430Z,75.35
2022-11-17T06:34:36.118Z,88.80
2022-11-17T06:37:02.615Z,79.57
2022-11-17T06:39:29.092Z,76.47
2022-11-17T06:41:55.598Z,71.05
2022-11-17T06:44:22.064Z,72.65
2022-11-17T06:46:49.332Z,70.53
2022-11-17T06:49:16.117Z,70.00
2022-11-17T06:51:45.421Z,72.10
2022-11-17T06:54:14.715Z,69.88
2022-11-17T06:56:42.631Z,74.43
2022-11-17T06:59:09.205Z,73.50
2022-11-17T07:01:37.252Z,72.90
2022-11-17T07:04:04.055Z,72.10
2022-11-17T07:06:30.804Z,74.57
2022-11-17T07:08:57.385Z,75.47
2022-11-17T07:11:23.932Z,78.28
2022-11-17T07:13:50.467Z,81.90
2022-11-17T07:16:23.525Z,93.20
2022-11-17T07:18:50.716Z,96.75
2022-11-17T07:21:18.044Z,108.05
2022-11-17T07:23:47.473Z,120.05
2022-11-17T07:26:14.426Z,131.55
2022-11-17T07:28:41.303Z,91.47
2022-11-17T07:31:09.109Z,82.15
2022-11-17T07:33:36.750Z,115.18
2022-11-17T07:36:09.505Z,88.93
2022-11-17T07:38:37.951Z,99.38
2022-11-17T07:41:05.644Z,101.95
2022-11-17T07:43:33.640Z,103.32
2022-11-17T07:46:07.874Z,90.93
2022-11-17T07:48:35.057Z,94.82
2022-11-17T07:51:03.275Z,95.60
2022-11-17T07:53:31.618Z,100.95
2022-11-17T07:56:03.483Z,100.70
2022-11-17T07:58:30.524Z,104.70
2022-11-17T08:00:57.093Z,107.15
2022-11-17T08:03:24.429Z,109.45
2022-11-17T08:05:51.085Z,133.45
2022-11-17T08:08:17.604Z,113.75
2022-11-17T08:10:44.191Z,111.38
2022-11-17T08:13:11.490Z,113.80
2022-11-17T08:15:38.083Z,127.53
2022-11-17T08:18:04.698Z,118.88
2022-11-17T08:20:31.289Z,133.20
2022-11-17T08:22:57.852Z,140.23
2022-11-17T08:25:26.377Z,143.30
2022-11-17T08:27:58.004Z,168.80
2022-11-17T08:30:25.779Z,152.27
2022-11-17T08:32:54.484Z,196.70
2022-11-17T08:35:24.632Z,207.02
2022-11-17T08:37:51.623Z,128.02
2022-11-17T08:40:19.887Z,119.30
2022-11-17T08:42:47.500Z,69.38
2022-11-17T08:45:14.580Z,46.08
2022-11-17T08:47:41.267Z,44.05
2022-11-17T08:50:08.707Z,46.13
2022-11-17T08:52:35.408Z,46.03
2022-11-17T08:55:02.776Z,44.63
2022-11-17T08:57:30.585Z,46.63
2022-11-17T08:59:57.475Z,49.53
2022-11-17T09:02:24.562Z,55.17
2022-11-17T09:04:51.204Z,50.88
2022-11-17T09:07:18.320Z,50.63
2022-11-17T09:09:46.404Z,55.15
2022-11-17T09:12:13.044Z,58.85
2022-11-17T09:14:39.593Z,55.17
2022-11-17T09:17:06.215Z,57.03
2022-11-17T09:19:32.844Z,60.60
2022-11-17T09:21:59.876Z,62.28
2022-11-17T09:24:26.787Z,66.80
2022-11-17T09:26:54.700Z,67.65
2022-11-17T09:29:21.894Z,77.45
2022-11-17T09:31:48.625Z,71.82
2022-11-17T09:34:17.066Z,74.78
2022-11-17T09:36:43.797Z,74.32
2022-11-17T09:39:10.542Z,82.40
2022-11-17T09:41:40.027Z,89.68
2022-11-17T09:44:11.051Z,91.18
2022-11-17T09:46:46.595Z,88.13
2022-11-17T09:49:33.075Z,66.78
2022-11-17T09:52:04.785Z,39.28
2022-11-17T09:54:51.111Z,29.80
2022-11-17T09:57:34.523Z,27.90
2022-11-17T10:00:14.863Z,36.25
2022-11-17T10:02:42.926Z,35.83
2022-11-17T10:05:20.828Z,37.85
2022-11-17T10:07:50.229Z,33.38
2022-11-17T10:10:21.772Z,37.97
2022-11-17T10:12:55.899Z,32.20
2022-11-17T10:15:30.794Z,28.73
2022-11-17T10:17:57.310Z,29.05
2022-11-17T10:20:23.921Z,26.10
2022-11-17T10:22:54.031Z,22.95
2022-11-17T10:25:41.933Z,23.90
2022-11-17T10:28:24.285Z,22.08
2022-11-17T10:31:03.171Z,20.17
2022-11-17T10:33:44.226Z,18.92
2022-11-17T10:36:14.323Z,19.00
2022-11-17T10:38:48.780Z,18.23
2022-11-17T10:41:19.331Z,18.42
2022-11-17T10:43:58.140Z,19.20
2022-11-17T10:46:24.732Z,17.98
2022-11-17T10:49:07.035Z,18.27
2022-11-17T10:51:35.664Z,18.52
2022-11-17T10:54:17.360Z,19.67
2022-11-17T10:56:54.621Z,19.00
2022-11-17T10:59:30.018Z,19.33
2022-11-17T11:01:56.767Z,18.88
2022-11-17T11:04:33.375Z,19.55
2022-11-17T11:07:19.273Z,17.60
2022-11-17T11:09:48.822Z,18.48
2022-11-17T11:12:20.983Z,18.27
2022-11-17T11:14:53.775Z,20.27
2022-11-17T11:17:20.446Z,19.95
2022-11-17T11:19:54.090Z,20.40
2022-11-17T11:22:35.715Z,23.67
2022-11-17T11:25:16.465Z,23.90
2022-11-17T11:28:08.700Z,30.05
2022-11-17T11:30:47.404Z,30.30
2022-11-17T11:33:35.887Z,32.15
2022-11-17T11:36:36.992Z,39.65
2022-11-17T11:39:15.263Z,52.63
2022-11-17T11:42:24.330Z,60.53
2022-11-17T11:45:12.229Z,70.30
2022-11-17T11:47:56.776Z,72.93
2022-11-17T11:50:26.669Z,68.40
2022-11-17T11:53:16.912Z,69.22
2022-11-17T11:55:48.177Z,50.03
2022-11-17T11:58:21.334Z,51.15
2022-11-17T12:00:52.670Z,44.88
2022-11-17T12:03:33.843Z,41.75
2022-11-17T12:06:38.111Z,38.85
2022-11-17T12:09:13.731Z,35.92
2022-11-17T12:12:00.521Z,32.35
2022-11-17T12:14:32.451Z,37.40
2022-11-17T12:17:13.845Z,42.45
2022-11-17T12:19:50.754Z,38.70
2022-11-17T12:22:26.348Z,44.30
2022-11-17T12:24:57.483Z,47.70
2022-11-17T12:27:36.030Z,47.22
2022-11-17T12:30:05.272Z,46.33
2022-11-17T12:32:44.041Z,50.20
2022-11-17T12:35:19.773Z,50.33
2022-11-17T12:37:46.403Z,49.38
2022-11-17T12:40:54.762Z,47.92
2022-11-17T12:43:23.636Z,42.42
2022-11-17T12:45:55.870Z,37.53
2022-11-17T12:48:35.142Z,43.45
2022-11-17T12:51:43.313Z,40.30
2022-11-17T12:54:24.526Z,40.25
2022-11-17T12:57:03.797Z,39.38
2022-11-17T12:59:30.235Z,43.95
2022-11-17T13:02:15.509Z,36.78
2022-11-17T13:04:58.604Z,33.83
2022-11-17T13:07:26.698Z,31.52
2022-11-17T13:09:57.269Z,30.20
2022-11-17T13:12:28.826Z,31.20
2022-11-17T13:14:57.476Z,30.50
2022-11-17T13:17:30.754Z,30.17
2022-11-17T13:19:59.510Z,24.70
2022-11-17T13:22:26.599Z,27.58
2022-11-17T13:24:53.975Z,29.08
2022-11-17T13:27:29.557Z,28.73
2022-11-17T13:30:14.963Z,29.02
2022-11-17T13:32:42.654Z,29.88
2022-11-17T13:35:38.426Z,32.17
2022-11-17T13:38:24.410Z,31.48
2022-11-17T13:40:53.422Z,34.20
2022-11-17T13:43:22.159Z,38.47
2022-11-17T13:45:53.387Z,45.58
2022-11-17T13:48:40.328Z,48.10
2022-11-17T13:51:29.347Z,52.88
2022-11-17T13:54:06.797Z,58.72
2022-11-17T13:56:40.720Z,74.07
2022-11-17T13:59:38.702Z,75.30
2022-11-17T14:02:17.165Z,78.53
2022-11-17T14:05:14.220Z,75.20
2022-11-17T14:07:42.740Z,73.03
2022-11-17T14:10:15.364Z,75.32
2022-11-17T14:12:42.371Z,70.30
2022-11-17T14:15:31.658Z,69.28
2022-11-17T14:18:00.120Z,59.42
2022-11-17T14:20:36.368Z,56.92
2022-11-17T14:23:04.391Z,59.13
2022-11-17T14:25:34.775Z,55.45
2022-11-17T14:28:01.599Z,55.53
2022-11-17T14:30:28.285Z,51.53
2022-11-17T14:32:58.284Z,46.53
2022-11-17T14:35:30.199Z,39.88
2022-11-17T14:37:56.912Z,37.95
2022-11-17T14:40:23.446Z,39.28
2022-11-17T14:42:49.939Z,36.65
2022-11-17T14:45:19.316Z,34.35
2022-11-17T14:47:45.955Z,35.58
2022-11-17T14:50:15.799Z,29.27
2022-11-17T14:52:43.798Z,27.25
2022-11-17T14:55:12.254Z,28.00
2022-11-17T14:57:39.595Z,28.17
2022-11-17T15:00:08.488Z,28.45
2022-11-17T15:02:36.405Z,27.38
2022-11-17T15:05:03.651Z,26.90
2022-11-17T15:07:30.287Z,26.73
2022-11-17T15:09:57.368Z,26.42
2022-11-17T15:12:23.988Z,26.77
2022-11-17T15:14:50.597Z,27.13
2022-11-17T15:17:17.334Z,28.10
2022-11-17T15:19:44.029Z,27.88
2022-11-17T15:22:10.955Z,30.42
2022-11-17T15:24:37.534Z,34.30
2022-11-17T15:27:04.257Z,38.80
2022-11-17T15:29:30.762Z,44.33
2022-11-17T15:31:57.286Z,51.20
2022-11-17T15:34:23.800Z,61.55
2022-11-17T15:36:50.299Z,63.67
2022-11-17T15:39:17.396Z,63.00
2022-11-17T15:41:44.959Z,67.30
2022-11-17T15:44:11.446Z,76.53
2022-11-17T15:46:39.656Z,77.38
2022-11-17T15:49:09.458Z,79.28
2022-11-17T15:51:36.126Z,80.25
2022-11-17T15:54:03.038Z,84.13
2022-11-17T15:56:33.727Z,86.88
2022-11-17T15:59:03.156Z,87.00
2022-11-17T16:01:34.672Z,95.53
2022-11-17T16:04:12.502Z,94.68
2022-11-17T16:06:41.441Z,98.80
2022-11-17T16:09:09.559Z,100.88
2022-11-17T16:11:37.121Z,105.60
2022-11-17T16:14:05.281Z,106.50
2022-11-17T16:16:35.520Z,107.38
2022-11-17T16:19:02.457Z,111.10
2022-11-17T16:21:29.294Z,109.22
2022-11-17T16:23:57.768Z,107.85
2022-11-17T16:26:26.436Z,106.80
2022-11-17T16:29:00.405Z,103.43
2022-11-17T16:31:31.268Z,102.38
2022-11-17T16:34:03.074Z,96.78
2022-11-17T16:36:36.238Z,91.43
2022-11-17T16:39:05.724Z,86.60
2022-11-17T16:41:38.304Z,83.03
2022-11-17T16:44:16.375Z,84.75
2022-11-17T16:46:45.210Z,81.60
2022-11-17T16:49:14.301Z,82.63
2022-11-17T16:51:41.420Z,80.72
2022-11-17T16:54:12.461Z,84.43
2022-11-17T16:56:39.294Z,80.53
2022-11-17T16:59:05.818Z,84.45
2022-11-17T17:01:34.683Z,84.38
2022-11-17T17:04:04.055Z,83.32
2022-11-17T17:06:31.210Z,87.40
2022-11-17T17:09:00.437Z,81.43
2022-11-17T17:11:29.196Z,84.90
2022-11-17T17:13:58.495Z,87.95
2022-11-17T17:16:25.824Z,100.13
2022-11-17T17:19:00.542Z,108.00
2022-11-17T17:21:28.982Z,104.43
2022-11-17T17:23:55.828Z,114.95
2022-11-17T17:26:24.579Z,109.13
2022-11-17T17:28:54.071Z,109.90
2022-11-17T17:31:22.563Z,113.97
2022-11-17T17:33:52.030Z,113.68
2022-11-17T17:36:21.485Z,124.05
2022-11-17T17:38:54.590Z,126.82
2022-11-17T17:41:23.111Z,128.43
2022-11-17T17:44:01.394Z,130.13
2022-11-17T17:46:31.529Z,133.15
2022-11-17T17:48:58.781Z,129.10
2022-11-17T17:51:27.674Z,133.25
2022-11-17T17:53:57.933Z,134.48
2022-11-17T17:56:24.613Z,130.50
2022-11-17T17:58:51.897Z,131.93
2022-11-17T18:01:22.752Z,126.22
2022-11-17T18:03:51.028Z,123.35
2022-11-17T18:06:19.579Z,123.40
2022-11-17T18:08:46.659Z,123.20
2022-11-17T18:11:18.989Z,120.20
2022-11-17T18:13:50.386Z,116.88
2022-11-17T18:16:21.556Z,114.32
2022-11-17T18:18:48.659Z,113.18
2022-11-17T18:21:17.956Z,115.43
2022-11-17T18:23:45.353Z,115.43
2022-11-17T18:26:16.628Z,108.40
2022-11-17T18:28:45.115Z,112.45
2022-11-17T18:31:11.811Z,109.80
2022-11-17T18:33:38.494Z,97.28
2022-11-17T18:36:07.242Z,94.18
2022-11-17T18:38:36.125Z,93.03
2022-11-17T18:41:04.603Z,90.75
2022-11-17T18:43:31.964Z,85.57
2022-11-17T18:46:03.547Z,90.95
2022-11-17T18:48:35.118Z,86.18
2022-11-17T18:51:19.207Z,84.97
2022-11-17T18:53:47.566Z,88.25
2022-11-17T18:56:17.443Z,82.82
2022-11-17T18:58:44.304Z,91.57
2022-11-17T19:01:33.864Z,79.68
2022-11-17T19:04:01.127Z,83.18
2022-11-17T19:06:28.175Z,77.88
2022-11-17T19:08:54.935Z,72.60
2022-11-17T19:11:22.730Z,71.50
2022-11-17T19:13:50.005Z,72.25
2022-11-17T19:16:19.548Z,69.47
2022-11-17T19:18:48.386Z,70.03
2022-11-17T19:21:18.331Z,72.53
2022-11-17T19:23:51.435Z,67.63
2022-11-17T19:26:24.052Z,71.43
2022-11-17T19:28:50.852Z,73.53
2022-11-17T19:31:20.453Z,79.82
2022-11-17T19:33:48.415Z,90.30
2022-11-17T19:36:26.619Z,81.75
2022-11-17T19:38:55.996Z,76.07
2022-11-17T19:41:31.555Z,80.53
2022-11-17T19:44:00.118Z,73.75
2022-11-17T19:46:28.298Z,72.20
2022-11-17T19:48:56.166Z,73.07
2022-11-17T19:51:29.135Z,72.75
2022-11-17T19:53:57.739Z,68.68
2022-11-17T19:56:25.771Z,68.13
2022-11-17T19:58:53.750Z,70.13
2022-11-17T20:01:24.487Z,67.53
2022-11-17T20:03:51.463Z,66.97
2022-11-17T20:06:20.831Z,67.40
2022-11-17T20:08:48.444Z,67.85
2022-11-17T20:11:20.692Z,66.38
2022-11-17T20:13:47.782Z,63.58
2022-11-17T20:16:20.024Z,63.80
2022-11-17T20:18:50.897Z,65.05
2022-11-17T20:21:18.506Z,64.90
2022-11-17T20:23:45.844Z,64.38
2022-11-17T20:26:23.978Z,63.92
2022-11-17T20:28:51.059Z,63.90
2022-11-17T20:31:19.478Z,67.38
2022-11-17T20:33:47.199Z,67.97
2022-11-17T20:36:21.438Z,65.32
2022-11-17T20:38:52.085Z,66.18
2022-11-17T20:41:20.836Z,65.47
2022-11-17T20:43:49.483Z,65.03
2022-11-17T20:46:16.159Z,59.83
2022-11-17T20:48:42.828Z,65.70
2022-11-17T20:51:15.094Z,63.22
2022-11-17T20:53:41.836Z,64.65
2022-11-17T20:56:10.058Z,63.95
2022-11-17T20:58:37.254Z,63.85
2022-11-17T21:01:14.987Z,64.05
2022-11-17T21:03:42.271Z,57.78
2022-11-17T21:06:09.299Z,60.72
2022-11-17T21:08:37.746Z,60.38
2022-11-17T21:11:06.955Z,55.63
2022-11-17T21:13:35.395Z,60.75
2022-11-17T21:16:15.306Z,55.47
2022-11-17T21:18:47.204Z,59.92
2022-11-17T21:21:14.378Z,56.03
2022-11-17T21:23:42.063Z,65.60
2022-11-17T21:26:14.039Z,62.28
2022-11-17T21:28:41.214Z,60.47
2022-11-17T21:31:11.846Z,61.90
2022-11-17T21:33:38.694Z,58.33
2022-11-17T21:36:11.030Z,60.72
2022-11-17T21:38:38.228Z,59.97
2022-11-17T21:41:16.933Z,67.20
2022-11-17T21:43:45.183Z,72.90
2022-11-17T21:46:14.949Z,80.50
2022-11-17T21:48:41.860Z,77.95
2022-11-17T21:51:15.327Z,67.15
2022-11-17T21:53:42.107Z,67.57
2022-11-17T21:56:08.943Z,70.57
2022-11-17T21:58:35.687Z,72.07
2022-11-17T22:01:14.376Z,79.45
2022-11-17T22:03:42.580Z,74.30
2022-11-17T22:06:18.189Z,77.88
2022-11-17T22:08:45.584Z,78.43
2022-11-17T22:11:15.308Z,74.80
2022-11-17T22:13:42.845Z,75.47
2022-11-17T22:16:13.984Z,75.38
2022-11-17T22:18:41.485Z,72.80
2022-11-17T22:21:09.577Z,71.00
2022-11-17T22:23:54.740Z,72.38
2022-11-17T22:26:21.360Z,73.70
2022-11-17T22:28:53.110Z,76.20
2022-11-17T22:31:21.987Z,73.35
2022-11-17T22:33:49.917Z,73.25
2022-11-17T22:36:17.282Z,78.65
2022-11-17T22:38:44.781Z,76.25
2022-11-17T22:41:12.720Z,75.72
2022-11-17T22:43:39.381Z,72.60
2022-11-17T22:46:09.658Z,76.35
2022-11-17T22:48:37.643Z,75.20
2022-11-17T22:51:05.437Z,79.03
2022-11-17T22:53:33.093Z,83.50
2022-11-17T22:56:07.787Z,86.65
2022-11-17T23:01:05.889Z,85.20
2022-11-17T23:03:32.978Z,87.38
2022-11-17T23:06:04.403Z,90.45
2022-11-17T23:08:31.971Z,93.80
2022-11-17T23:11:34.854Z,94.00
2022-11-17T23:13:49.416Z,91.45
2022-11-17T23:16:15.947Z,90.90
2022-11-17T23:18:42.520Z,86.78
2022-11-17T23:21:10.997Z,86.63
2022-11-17T23:23:40.246Z,89.70
2022-11-17T23:26:09.933Z,84.90
2022-11-17T23:28:40.797Z,91.95
2022-11-17T23:31:11.620Z,90.20
2022-11-17T23:33:43.366Z,93.10
2022-11-17T23:36:18.723Z,94.13
2022-11-17T23:38:45.826Z,93.72
2022-11-17T23:41:14.828Z,94.32
2022-11-17T23:43:42.315Z,103.45
2022-11-17T23:46:16.959Z,107.07
2022-11-17T23:51:12.771Z,94.35
2022-11-17T23:53:39.393Z,98.68
2022-11-17T23:56:06.939Z,95.88
2022-11-17T23:58:33.599Z,95.20
